Bradbury, Illinois
Current Conditions -  °F | °C
As of 2:53 PM on Friday 21 Nov 2014 (Local Time) from KMTO Reporting Station
Clear Clear  
Wind Chill: 28°   Ceiling: Unl
Heat Index: 36°   Visibility: 10mi
Dew Point: 13°   Wind: 12mph
Humidity: 39%   Direction: 140°SE
Pressure: 30.36"   Gusts: NA
Location:  39.2896°N, 88.2485°W
Report Text: KMTO 212053Z AUTO 14010KT 10SM CLR 02/M11 A3036 RMK AO2 SLP289 T00221106 56023
Loading
Personal Weather Stations






























Interactive Weather Map New forecast layout! Learn more

10-Day Weather Forecast

Advertisements
Track Severe Weather on mobile